Share

Hue, Viet Nam

10:55 PM ICT on April 23, 2014 (GMT +0700)
Phubai (VVPB) Elev 56 ft | 16.40 °N, 107.70 °E | Change Station

Current weather conditions updated 25 minutes ago

Scattered Clouds
Scattered Clouds
82 °F
Feels Like 92 °F
N
2
Wind Variable Wind from Variable
Sunrise 5:29 AM
Sunset 6:06 PM
Moon Waning Crescent

Tomorrow is forecast to be nearly the same temperature as today.

Pressure 29.77 in
Visibility 5.0 miles
Clouds Few 1500 ft
Scattered Clouds 6000 ft
Heat Index 92 °F
Dew Point 79 °F
Humidity 89%
Rainfall 0.00 in
Snow Depth Not available.
UV 0 out of 16
Pollen Not available.
Air Quality Not available.
Flu Activity Not available.
METAR VVPB 231530Z VRB02KT 8000 FEW015 SCT060 28/26 Q1008 NOSIG

More Conditions Fewer Conditions

Pressure 29.77 in
Visibility 5.0 miles
Clouds Few 1500 ft
Scattered Clouds 6000 ft
Heat Index 92 °F
Dew Point 79 °F
Humidity 89%
Rainfall 0.00 in
Snow Depth Not available.
UV 0 out of 16
Pollen Not available.
Air Quality Not available.
Flu Activity Not available.
METAR VVPB 231530Z VRB02KT 8000 FEW015 SCT060 28/26 Q1008 NOSIG

More Conditions Fewer Conditions

10-Day Weather Forecast

Almanac

Astronomy

Apr. 23, 2014 Rise Set
Actual Time 5:29 AM ICT 6:06 PM ICT
Civil Twilight 5:07 AM ICT 6:28 PM ICT
Nautical Twilight 4:41 AM ICT 6:54 PM ICT
Astronomical Twilight 4:14 AM ICT 7:20 PM ICT
Moon 12:38 AM ICT 12:34 PM ICT
Length of Visible Light 13h 21m
Length of Day
12h 36m
Tomorrow will be 0m 50s longer.
Waning Crescent, 35% of the Moon is Illuminated
Today
Waning Crescent
Apr 29
New
May 6
First Quarter
May 14
Full
May 21
Last Quarter

Today's Extremes

Country Highs Country Lows

Community

  • spring flowers
    spring flowers
  • Earth Day Spectrum Ove' Blue
    Earth Day Spectrum Ove' Blue
  • BARN B&W
    BARN B&W
  • April Sunset
    April Sunset
  • Waiting..
    Waiting..

WunderPhotos

Upload Photos

1,704,316 photos uploaded!

Nearby

Snow Depth

Not available.

Coastal Water Temperatures

Place Temperature
No Stations Reporting

Earthquake Activity

City Distance Mag. Time & Date
No recent earthquake activity has been reported nearby.
Minimum magnitude displayed is 2.5.

Nearby Weather Stations

There are no personal weather stations in this area.

What do you think?

We're not finished. Please let us know what you like, what you don't like, and what you are still missing.